Kenai Municipal, AK

10:55 AM AKST on January 27, 2015 (GMT -0900)
Kenai Municipal | Change Station
CLOSE
Current Station
Airport
Location: Kenai,
Elevation: 95 ft
Nearby Weather Stations

Elev 95 ft 60.58 °N, 151.24 °W | Updated 1 hour ago

Overcast
Overcast
11 °F
Feels Like -3 °F
N
10
Wind Variable Wind from NE

Today
High -- | Low -- °F
--% Chance of Precip.
Yesterday
High -- | Low -- °F
Precip. -- in
9:33 AM 5:02 PM
First Quarter, 57% visible
Pressure 30.02 in
Visibility 10.0 miles
Clouds Overcast 3700 ft
Windchill -3 °F
Dew Point 3 °F
Humidity 70%
Rainfall 0.00 in
Snow Depth Not available.
UV 0 out of 12
Pollen Not available.
Air Quality Not available.
Flu Activity Not available.
METAR PAEN 271853Z 04009KT 10SM OVC037 M12/M16 A3001 RMK AO2 SLP164 T11171161

More Conditions Fewer Conditions

Pressure 30.02 in
Visibility 10.0 miles
Clouds Overcast 3700 ft
Windchill -3 °F
Dew Point 3 °F
Humidity 70%
Rainfall 0.00 in
Snow Depth Not available.
UV 0 out of 12
Pollen Not available.
Air Quality Not available.
Flu Activity Not available.
METAR PAEN 271853Z 04009KT 10SM OVC037 M12/M16 A3001 RMK AO2 SLP164 T11171161

More Conditions Fewer Conditions

10-Day Weather Forecast

Almanac

Astronomy

Jan. 27, 2015 Rise Set
Actual Time
Civil Twilight
Nautical Twilight
Astronomical Twilight
Moon
Length of Visible Light
Length of Day
Tomorrow will be .
, % of the Moon is Illuminated

Today's Extremes

State Highs State Lows

Community

WunderPhotos

Upload Photos

1,790,837 photos uploaded!

WunderBlogs® & News

Nearby

Air Quality

  Air Quality AQ Index Pollutant
Not available.

Snow Depth

Station Depth Elevation

Earthquake Activity

City Distance Mag. Time & Date
Minimum magnitude displayed is 2.5.

Coastal Water Temperatures

Place Temperature

Nearby Weather Stations